createdAt,value
2023-03-10T00:01:30.418Z,96331.00
2023-03-10T00:03:58.543Z,96339.66
2023-03-10T00:06:27.133Z,96328.34
2023-03-10T00:08:54.222Z,96311.00
2023-03-10T00:11:22.934Z,96301.44
2023-03-10T00:13:49.420Z,96303.16
2023-03-10T00:16:18.773Z,96300.56
2023-03-10T00:18:46.264Z,96297.13
2023-03-10T00:21:19.659Z,96295.34
2023-03-10T00:23:47.030Z,96291.88
2023-03-10T00:26:15.469Z,96287.53
2023-03-10T00:28:42.241Z,96284.06
2023-03-10T00:31:12.485Z,96278.00
2023-03-10T00:33:39.311Z,96272.75
2023-03-10T00:36:13.562Z,96274.50
2023-03-10T00:38:42.783Z,96262.34
2023-03-10T00:41:13.610Z,96264.06
2023-03-10T00:43:40.388Z,96269.25
2023-03-10T00:46:07.696Z,96249.25
2023-03-10T00:48:34.961Z,96251.88
2023-03-10T00:51:05.214Z,96254.47
2023-03-10T00:53:33.465Z,96246.66
2023-03-10T00:56:26.711Z,96232.75
2023-03-10T00:58:56.598Z,96228.44
2023-03-10T01:01:29.221Z,96230.16
2023-03-10T01:03:58.184Z,96215.41
2023-03-10T01:06:25.341Z,96216.25
2023-03-10T01:08:54.828Z,96211.94
2023-03-10T01:11:27.408Z,96207.59
2023-03-10T01:13:57.049Z,96195.34
2023-03-10T01:16:23.979Z,96198.81
2023-03-10T01:18:50.939Z,96199.69
2023-03-10T01:21:23.434Z,96183.19
2023-03-10T01:23:50.485Z,96176.31
2023-03-10T01:26:18.757Z,96168.50
2023-03-10T01:28:46.107Z,96178.91
2023-03-10T01:31:12.813Z,96164.97
2023-03-10T01:33:41.047Z,96153.69
2023-03-10T01:36:10.132Z,96148.44
2023-03-10T01:38:38.086Z,96150.16
2023-03-10T01:41:05.798Z,96141.47
2023-03-10T01:43:33.939Z,96137.97
2023-03-10T01:46:03.441Z,96141.47
2023-03-10T01:48:34.276Z,96121.50
2023-03-10T01:51:01.389Z,96111.09
2023-03-10T01:53:29.475Z,96113.72
2023-03-10T01:56:00.827Z,96105.06
2023-03-10T01:58:35.102Z,96105.00
2023-03-10T02:01:01.747Z,96091.94
2023-03-10T02:03:32.935Z,96084.09
2023-03-10T02:06:07.416Z,96084.94
2023-03-10T02:08:39.053Z,96079.75
2023-03-10T02:11:05.663Z,96059.78
2023-03-10T02:13:32.141Z,96065.81
2023-03-10T02:15:58.941Z,96049.31
2023-03-10T02:18:26.026Z,96051.88
2023-03-10T02:21:10.828Z,96044.06
2023-03-10T02:24:00.884Z,96036.19
2023-03-10T02:26:49.784Z,96030.97
2023-03-10T02:29:24.142Z,96021.31
2023-03-10T02:31:51.479Z,96011.69
2023-03-10T02:34:18.695Z,96016.06
2023-03-10T02:36:45.268Z,96017.78
2023-03-10T02:39:11.705Z,96014.31
2023-03-10T02:41:40.058Z,96002.22
2023-03-10T02:44:11.749Z,95999.72
2023-03-10T02:46:38.333Z,95997.06
2023-03-10T02:49:06.507Z,95996.09
2023-03-10T02:51:37.383Z,95993.53
2023-03-10T02:54:04.837Z,95978.75
2023-03-10T02:56:34.396Z,95980.50
2023-03-10T02:59:01.750Z,95973.06
2023-03-10T03:01:30.526Z,95952.56
2023-03-10T03:04:00.982Z,95957.47
2023-03-10T03:06:28.343Z,95941.09
2023-03-10T03:08:57.757Z,95944.75
2023-03-10T03:11:24.488Z,95933.16
2023-03-10T03:13:51.044Z,95921.91
2023-03-10T03:16:18.141Z,95926.53
2023-03-10T03:18:44.658Z,95919.50
2023-03-10T03:21:15.927Z,95917.94
2023-03-10T03:23:42.832Z,95920.81
2023-03-10T03:26:23.289Z,95913.72
2023-03-10T03:28:51.352Z,95905.28
2023-03-10T03:31:23.440Z,95894.16
2023-03-10T03:33:50.569Z,95889.97
2023-03-10T03:36:17.109Z,95884.06
2023-03-10T03:38:43.550Z,95881.44
2023-03-10T03:41:13.239Z,95867.38
2023-03-10T03:43:39.741Z,95868.66
2023-03-10T03:46:06.404Z,95874.81
2023-03-10T03:48:34.664Z,95871.13
2023-03-10T03:51:04.454Z,95866.00
2023-03-10T03:53:34.459Z,95869.41
2023-03-10T03:56:00.917Z,95860.78
2023-03-10T03:58:27.416Z,95850.25
2023-03-10T04:00:53.948Z,95844.88
2023-03-10T04:03:20.540Z,95844.41
2023-03-10T04:05:47.077Z,95852.75
2023-03-10T04:08:14.414Z,95844.72
2023-03-10T04:10:40.918Z,95843.00
2023-03-10T04:13:07.421Z,95848.63
2023-03-10T04:15:34.967Z,95834.03
2023-03-10T04:18:01.620Z,95838.31
2023-03-10T04:20:28.066Z,95839.38
2023-03-10T04:22:54.604Z,95835.84
2023-03-10T04:25:21.293Z,95837.38
2023-03-10T04:27:47.811Z,95837.28
2023-03-10T04:30:14.985Z,95830.28
2023-03-10T04:32:41.633Z,95840.88
2023-03-10T04:35:08.542Z,95830.78
2023-03-10T04:37:35.175Z,95838.44
2023-03-10T04:40:03.271Z,95824.63
2023-03-10T04:42:29.745Z,95825.53
2023-03-10T04:44:56.264Z,95822.81
2023-03-10T04:47:22.847Z,95827.09
2023-03-10T04:49:52.634Z,95809.22
2023-03-10T04:52:19.301Z,95809.50
2023-03-10T04:54:45.768Z,95825.03
2023-03-10T04:57:12.279Z,95833.41
2023-03-10T04:59:38.845Z,95835.75
2023-03-10T05:02:05.483Z,95834.91
2023-03-10T05:04:32.222Z,95842.44
2023-03-10T05:06:58.799Z,95834.91
2023-03-10T05:09:25.369Z,95836.16
2023-03-10T05:11:51.889Z,95836.00
2023-03-10T05:14:18.509Z,95830.91
2023-03-10T05:16:47.588Z,95839.44
2023-03-10T05:19:14.126Z,95844.53
2023-03-10T05:21:40.569Z,95845.69
2023-03-10T05:24:07.279Z,95841.50
2023-03-10T05:26:36.754Z,95852.97
2023-03-10T05:29:03.521Z,95850.22
2023-03-10T05:31:30.221Z,95853.94
2023-03-10T05:33:58.124Z,95852.84
2023-03-10T05:36:24.721Z,95830.78
2023-03-10T05:38:51.415Z,95841.22
2023-03-10T05:41:17.945Z,95846.38
2023-03-10T05:43:44.568Z,95854.91
2023-03-10T05:46:12.194Z,95856.03
2023-03-10T05:48:39.309Z,95864.41
2023-03-10T05:51:11.793Z,95865.81
2023-03-10T05:53:39.292Z,95872.78
2023-03-10T05:56:11.719Z,95870.94
2023-03-10T05:58:39.053Z,95873.25
2023-03-10T06:01:06.454Z,95880.72
2023-03-10T06:03:33.675Z,95876.19
2023-03-10T06:06:03.804Z,95887.63
2023-03-10T06:08:31.130Z,95892.22
2023-03-10T06:10:58.178Z,95895.75
2023-03-10T06:13:25.673Z,95891.16
2023-03-10T06:15:55.107Z,95897.47
2023-03-10T06:18:22.160Z,95898.25
2023-03-10T06:20:49.865Z,95906.56
2023-03-10T06:23:17.679Z,95901.06
2023-03-10T06:25:44.349Z,95901.13
2023-03-10T06:28:12.181Z,95908.97
2023-03-10T06:30:39.036Z,95904.56
2023-03-10T06:33:05.622Z,95913.47
2023-03-10T06:35:32.178Z,95919.78
2023-03-10T06:37:58.644Z,95918.91
2023-03-10T06:40:25.258Z,95923.53
2023-03-10T06:42:51.710Z,95930.63
2023-03-10T06:45:18.286Z,95932.22
2023-03-10T06:47:45.273Z,95934.78
2023-03-10T06:50:13.028Z,95933.94
2023-03-10T06:52:39.758Z,95931.47
2023-03-10T06:55:06.833Z,95934.78
2023-03-10T06:57:34.002Z,95929.59
2023-03-10T07:00:00.557Z,95935.88
2023-03-10T07:02:27.136Z,95923.22
2023-03-10T07:04:53.767Z,95926.78
2023-03-10T07:07:20.245Z,95929.00
2023-03-10T07:09:47.014Z,95924.53
2023-03-10T07:12:13.535Z,95932.25
2023-03-10T07:14:40.037Z,95933.00
2023-03-10T07:17:06.633Z,95936.41
2023-03-10T07:19:33.201Z,95934.69
2023-03-10T07:21:59.694Z,95934.63
2023-03-10T07:24:26.153Z,95935.31
2023-03-10T07:26:52.850Z,95935.81
2023-03-10T07:29:19.284Z,95942.84
2023-03-10T07:31:45.829Z,95940.88
2023-03-10T07:34:12.341Z,95942.56
2023-03-10T07:36:38.863Z,95946.13
2023-03-10T07:39:05.345Z,95947.84
2023-03-10T07:41:31.904Z,95952.31
2023-03-10T07:43:58.365Z,95955.38
2023-03-10T07:46:25.001Z,95950.03
2023-03-10T07:48:52.891Z,95957.44
2023-03-10T07:51:19.947Z,95960.91
2023-03-10T07:53:46.429Z,95960.78
2023-03-10T07:56:14.661Z,95961.28
2023-03-10T07:58:41.621Z,95965.03
2023-03-10T08:01:08.972Z,95976.47
2023-03-10T08:03:35.983Z,95967.28
2023-03-10T08:06:05.453Z,95969.03
2023-03-10T08:08:32.055Z,95977.19
2023-03-10T08:11:07.167Z,95981.72
2023-03-10T08:13:33.920Z,95978.25
2023-03-10T08:16:01.480Z,95983.84
2023-03-10T08:18:29.643Z,95983.03
2023-03-10T08:20:56.681Z,95984.75
2023-03-10T08:23:24.411Z,95980.09
2023-03-10T08:25:51.449Z,95984.25
2023-03-10T08:28:18.013Z,95986.81
2023-03-10T08:31:01.214Z,95992.81
2023-03-10T08:33:30.714Z,95996.81
2023-03-10T08:36:23.740Z,95992.94
2023-03-10T08:38:52.059Z,95988.34
2023-03-10T08:41:25.252Z,96000.19
2023-03-10T08:43:53.780Z,95982.47
2023-03-10T08:46:22.136Z,95989.22
2023-03-10T08:48:48.858Z,95992.69
2023-03-10T08:51:16.301Z,95984.44
2023-03-10T08:53:46.840Z,95986.09
2023-03-10T08:56:19.276Z,95992.84
2023-03-10T08:58:45.839Z,95984.59
2023-03-10T09:01:16.903Z,95988.06
2023-03-10T09:03:45.098Z,95984.13
2023-03-10T09:06:12.064Z,95981.84
2023-03-10T09:08:39.721Z,95999.59
2023-03-10T09:11:06.375Z,95999.47
2023-03-10T09:13:32.893Z,96003.50
2023-03-10T09:16:01.708Z,96010.66
2023-03-10T09:18:28.592Z,96001.88
2023-03-10T09:20:55.073Z,95993.28
2023-03-10T09:23:21.570Z,96001.66
2023-03-10T09:25:48.096Z,96008.28
2023-03-10T09:28:16.805Z,96012.38
2023-03-10T09:30:44.728Z,96013.84
2023-03-10T09:33:17.096Z,96020.41
2023-03-10T09:35:52.480Z,96023.72
2023-03-10T09:38:28.145Z,96027.63
2023-03-10T09:41:15.769Z,96030.97
2023-03-10T09:43:50.587Z,96038.06
2023-03-10T09:46:26.836Z,96030.88
2023-03-10T09:49:04.689Z,96029.94
2023-03-10T09:51:31.604Z,96023.41
2023-03-10T09:54:19.909Z,96031.00
2023-03-10T09:56:46.488Z,96027.81
2023-03-10T09:59:16.702Z,96025.06
2023-03-10T10:01:46.979Z,96024.78
2023-03-10T10:04:27.543Z,96017.13
2023-03-10T10:06:56.079Z,96026.59
2023-03-10T10:09:43.364Z,96033.78
2023-03-10T10:12:11.712Z,96033.16
2023-03-10T10:14:42.590Z,96025.59
2023-03-10T10:17:35.455Z,96044.94
2023-03-10T10:20:10.402Z,96044.34
2023-03-10T10:22:38.225Z,96052.91
2023-03-10T10:25:21.581Z,96048.03
2023-03-10T10:27:52.290Z,96046.59
2023-03-10T10:30:38.122Z,96041.56
2023-03-10T10:33:10.096Z,96045.69
2023-03-10T10:35:41.677Z,96055.50
2023-03-10T10:38:11.261Z,96054.31
2023-03-10T10:40:50.940Z,96059.22
2023-03-10T10:43:19.638Z,96068.38
2023-03-10T10:45:54.410Z,96059.81
2023-03-10T10:48:35.236Z,96064.66
2023-03-10T10:51:02.460Z,96067.34
2023-03-10T10:53:34.364Z,96085.97
2023-03-10T10:56:05.116Z,96070.97
2023-03-10T10:58:37.469Z,96074.66
2023-03-10T11:01:07.184Z,96078.88
2023-03-10T11:03:39.496Z,96075.06
2023-03-10T11:06:18.279Z,96077.38
2023-03-10T11:08:50.883Z,96075.97
2023-03-10T11:11:53.566Z,96076.03
2023-03-10T11:14:44.109Z,96069.75
2023-03-10T11:17:23.068Z,96067.06
2023-03-10T11:20:14.882Z,96063.88
2023-03-10T11:23:01.750Z,96071.91
2023-03-10T11:25:38.312Z,96071.59
2023-03-10T11:28:32.490Z,96061.91
2023-03-10T11:31:11.894Z,96081.28
2023-03-10T11:34:03.104Z,96071.69
2023-03-10T11:37:09.525Z,96074.72
2023-03-10T11:39:43.726Z,96076.63
2023-03-10T11:42:26.306Z,96077.25
2023-03-10T11:45:05.029Z,96080.16
2023-03-10T11:47:54.920Z,96076.09
2023-03-10T11:50:53.602Z,96074.28
2023-03-10T11:53:37.990Z,96074.28
2023-03-10T11:56:08.118Z,96078.72
2023-03-10T11:59:09.733Z,96068.00
2023-03-10T12:01:51.697Z,96076.78
2023-03-10T12:04:22.939Z,96070.84
2023-03-10T12:07:44.904Z,96066.88
2023-03-10T12:10:11.356Z,96063.53
2023-03-10T12:12:49.047Z,96059.75
2023-03-10T12:15:22.326Z,96056.13
2023-03-10T12:17:50.622Z,96054.31
2023-03-10T12:20:17.410Z,96055.94
2023-03-10T12:23:00.290Z,96052.47
2023-03-10T12:25:38.703Z,96049.78
2023-03-10T12:28:17.272Z,96055.19
2023-03-10T12:30:45.893Z,96046.03
2023-03-10T12:33:30.902Z,96043.41
2023-03-10T12:36:17.294Z,96032.97
2023-03-10T12:38:50.278Z,96032.13
2023-03-10T12:41:26.188Z,96034.81
2023-03-10T12:44:07.310Z,96029.44
2023-03-10T12:46:42.946Z,96030.06
2023-03-10T12:49:44.194Z,96027.66
2023-03-10T12:52:20.457Z,96023.72
2023-03-10T12:55:05.087Z,96030.78
2023-03-10T12:57:44.908Z,96025.09
2023-03-10T13:00:25.618Z,96020.16
2023-03-10T13:03:05.217Z,96018.94
2023-03-10T13:05:39.351Z,96016.97
2023-03-10T13:08:17.700Z,96017.78
2023-03-10T13:10:45.756Z,96013.34
2023-03-10T13:13:17.461Z,96014.28
2023-03-10T13:15:43.998Z,96008.00
2023-03-10T13:18:16.488Z,96015.16
2023-03-10T13:20:43.229Z,96014.44
2023-03-10T13:23:25.766Z,96018.94
2023-03-10T13:25:58.344Z,96019.84
2023-03-10T13:28:27.450Z,96019.06
2023-03-10T13:31:18.569Z,96005.06
2023-03-10T13:33:53.208Z,96009.19
2023-03-10T13:36:33.491Z,96034.38
2023-03-10T13:39:15.915Z,96044.28
2023-03-10T13:42:03.577Z,96039.31
2023-03-10T13:44:38.824Z,96022.59
2023-03-10T13:47:13.419Z,96021.63
2023-03-10T13:49:43.940Z,96020.78
2023-03-10T13:52:14.265Z,96021.09
2023-03-10T13:54:42.424Z,96018.81
2023-03-10T13:57:09.039Z,96025.03
2023-03-10T13:59:36.708Z,96019.09
2023-03-10T14:02:04.445Z,96024.25
2023-03-10T14:04:47.086Z,96024.38
2023-03-10T14:07:18.335Z,96033.28
2023-03-10T14:09:47.046Z,96036.09
2023-03-10T14:12:14.855Z,96029.16
2023-03-10T14:14:44.624Z,96022.31
2023-03-10T14:17:33.754Z,96013.59
2023-03-10T14:20:00.290Z,96011.72
2023-03-10T14:22:35.785Z,96022.47
2023-03-10T14:25:07.570Z,96018.06
2023-03-10T14:27:35.986Z,96026.88
2023-03-10T14:30:22.277Z,96028.75
2023-03-10T14:32:51.437Z,96031.38
2023-03-10T14:35:20.534Z,96033.19
2023-03-10T14:37:48.787Z,96048.78
2023-03-10T14:40:20.347Z,96042.00
2023-03-10T14:42:49.513Z,96033.38
2023-03-10T14:45:30.634Z,96048.13
2023-03-10T14:47:58.806Z,96044.69
2023-03-10T14:50:26.820Z,96040.44
2023-03-10T14:52:53.328Z,96049.88
2023-03-10T14:55:19.891Z,96050.69
2023-03-10T14:57:48.418Z,96054.44
2023-03-10T15:00:20.180Z,96062.44
2023-03-10T15:02:47.885Z,96059.84
2023-03-10T15:05:19.894Z,96064.31
2023-03-10T15:07:48.667Z,96061.75
2023-03-10T15:10:20.033Z,96061.75
2023-03-10T15:12:49.602Z,96060.97
2023-03-10T15:15:24.966Z,96061.75
2023-03-10T15:17:51.771Z,96063.47
2023-03-10T15:20:20.928Z,96058.88
2023-03-10T15:22:48.053Z,96050.97
2023-03-10T15:25:16.620Z,96060.72
2023-03-10T15:27:44.422Z,96054.31
2023-03-10T15:30:32.657Z,96058.63
2023-03-10T15:32:59.489Z,96060.41
2023-03-10T15:35:26.512Z,96064.03
2023-03-10T15:37:54.180Z,96050.13
2023-03-10T15:40:29.756Z,96045.78
2023-03-10T15:42:57.759Z,96046.69
2023-03-10T15:45:25.744Z,96047.72
2023-03-10T15:47:52.512Z,96038.00
2023-03-10T15:50:20.578Z,96040.75
2023-03-10T15:52:55.293Z,96044.38
2023-03-10T15:55:23.249Z,96031.59
2023-03-10T15:57:50.241Z,96015.06
2023-03-10T16:00:22.085Z,96018.72
2023-03-10T16:02:49.533Z,96006.66
2023-03-10T16:05:17.068Z,96009.50
2023-03-10T16:07:43.992Z,96004.31
2023-03-10T16:10:13.757Z,96000.78
2023-03-10T16:12:40.331Z,95996.41
2023-03-10T16:15:07.427Z,95991.16
2023-03-10T16:17:34.141Z,95982.50
2023-03-10T16:20:02.214Z,95987.81
2023-03-10T16:22:28.885Z,95985.88
2023-03-10T16:24:55.396Z,95984.94
2023-03-10T16:27:21.894Z,95977.19
2023-03-10T16:29:48.477Z,95981.53
2023-03-10T16:32:15.235Z,95976.22
2023-03-10T16:34:41.810Z,95969.34
2023-03-10T16:37:08.437Z,95963.09
2023-03-10T16:39:36.476Z,95964.09
2023-03-10T16:42:03.050Z,95962.34
2023-03-10T16:44:29.530Z,95952.72
2023-03-10T16:46:55.981Z,95952.72
2023-03-10T16:49:22.570Z,95942.22
2023-03-10T16:51:49.067Z,95942.22
2023-03-10T16:54:18.932Z,95942.28
2023-03-10T16:56:48.316Z,95944.91
2023-03-10T16:59:18.525Z,95948.38
2023-03-10T17:01:45.580Z,95945.81
2023-03-10T17:04:12.477Z,95947.53
2023-03-10T17:06:39.284Z,95949.41
2023-03-10T17:09:08.893Z,95938.19
2023-03-10T17:11:40.828Z,95935.56
2023-03-10T17:14:10.507Z,95942.56
2023-03-10T17:16:37.715Z,95932.13
2023-03-10T17:19:11.211Z,95928.69
2023-03-10T17:21:40.150Z,95939.09
2023-03-10T17:24:08.232Z,95946.22
2023-03-10T17:26:35.864Z,95943.75
2023-03-10T17:29:02.592Z,95950.69
2023-03-10T17:31:29.733Z,95950.47
2023-03-10T17:33:59.631Z,95951.50
2023-03-10T17:36:26.812Z,95956.69
2023-03-10T17:38:58.854Z,95953.25
2023-03-10T17:41:26.281Z,95964.59
2023-03-10T17:43:53.557Z,95953.31
2023-03-10T17:46:22.435Z,95948.13
2023-03-10T17:48:49.014Z,95948.88
2023-03-10T17:51:16.814Z,95941.22
2023-03-10T17:53:47.483Z,95938.59
2023-03-10T17:56:14.544Z,95938.72
2023-03-10T17:58:41.184Z,95941.22
2023-03-10T18:01:19.314Z,95932.41
2023-03-10T18:03:48.859Z,95936.66
2023-03-10T18:06:18.306Z,95936.72
2023-03-10T18:08:45.004Z,95924.44
2023-03-10T18:11:12.228Z,95929.84
2023-03-10T18:13:39.629Z,95924.81
2023-03-10T18:16:07.664Z,95924.91
2023-03-10T18:18:34.260Z,95919.84
2023-03-10T18:21:00.775Z,95923.41
2023-03-10T18:23:27.323Z,95914.00
2023-03-10T18:25:53.888Z,95907.97
2023-03-10T18:28:20.775Z,95909.63
2023-03-10T18:30:49.290Z,95911.31
2023-03-10T18:33:16.101Z,95905.34
2023-03-10T18:35:44.977Z,95909.56
2023-03-10T18:38:13.135Z,95898.09
2023-03-10T18:40:40.215Z,95896.50
2023-03-10T18:43:07.085Z,95888.78
2023-03-10T18:45:33.722Z,95881.84
2023-03-10T18:48:00.206Z,95885.16
2023-03-10T18:50:26.936Z,95902.59
2023-03-10T18:52:53.471Z,95904.22
2023-03-10T18:55:20.025Z,95896.41
2023-03-10T18:57:46.544Z,95899.00
2023-03-10T19:00:14.910Z,95898.22
2023-03-10T19:02:42.674Z,95906.81
2023-03-10T19:05:16.459Z,95900.72
2023-03-10T19:07:42.900Z,95906.81
2023-03-10T19:10:13.596Z,95918.09
2023-03-10T19:12:40.683Z,95916.38
2023-03-10T19:15:09.125Z,95927.69
2023-03-10T19:17:37.536Z,95923.38
2023-03-10T19:20:07.619Z,95922.53
2023-03-10T19:22:35.425Z,95923.41
2023-03-10T19:25:04.012Z,95925.97
2023-03-10T19:27:30.804Z,95929.56
2023-03-10T19:29:58.199Z,95939.25
2023-03-10T19:32:25.318Z,95942.06
2023-03-10T19:34:51.854Z,95952.69
2023-03-10T19:37:18.828Z,95958.06
2023-03-10T19:39:48.134Z,95950.16
2023-03-10T19:42:14.724Z,95959.03
2023-03-10T19:44:41.181Z,95955.41
2023-03-10T19:47:07.826Z,95965.94
2023-03-10T19:49:34.356Z,95959.94
2023-03-10T19:52:01.662Z,95950.38
2023-03-10T19:54:28.182Z,95958.34
2023-03-10T19:56:54.743Z,95958.50
2023-03-10T19:59:21.260Z,95964.56
2023-03-10T20:01:49.375Z,95961.94
2023-03-10T20:04:15.976Z,95952.50
2023-03-10T20:06:42.512Z,95962.28
2023-03-10T20:09:10.556Z,95964.06
2023-03-10T20:11:41.018Z,95959.69
2023-03-10T20:14:08.390Z,95966.69
2023-03-10T20:16:35.454Z,95963.19
2023-03-10T20:19:02.236Z,95970.19
2023-03-10T20:21:29.179Z,95968.47
2023-03-10T20:23:56.414Z,95978.91
2023-03-10T20:26:23.170Z,95971.94
2023-03-10T20:28:50.428Z,95983.28
2023-03-10T20:31:23.665Z,95982.53
2023-03-10T20:33:50.615Z,95993.84
2023-03-10T20:36:17.144Z,95999.28
2023-03-10T20:38:45.506Z,96014.28
2023-03-10T20:41:15.924Z,96032.78
2023-03-10T20:43:43.477Z,96041.66
2023-03-10T20:46:10.881Z,96072.34
2023-03-10T20:48:37.803Z,96087.50
2023-03-10T20:51:04.790Z,96117.72
2023-03-10T20:53:33.341Z,96133.84
2023-03-10T20:56:06.997Z,96156.78
2023-03-10T20:58:33.541Z,96179.53
2023-03-10T21:01:00.099Z,96197.19
2023-03-10T21:03:27.233Z,96219.06
2023-03-10T21:05:54.202Z,96227.91
2023-03-10T21:08:20.746Z,96254.00
2023-03-10T21:10:49.372Z,96275.78
2023-03-10T21:13:16.069Z,96294.97
2023-03-10T21:15:42.534Z,96301.91
2023-03-10T21:18:09.011Z,96321.09
2023-03-10T21:20:35.574Z,96335.91
2023-03-10T21:23:02.100Z,96357.63
2023-03-10T21:25:31.763Z,96357.63
2023-03-10T21:28:01.822Z,96378.50
2023-03-10T21:30:31.891Z,96378.50
2023-03-10T21:32:59.421Z,96393.28
2023-03-10T21:35:28.145Z,96409.78
2023-03-10T21:37:55.561Z,96426.31
2023-03-10T21:40:24.311Z,96432.41
2023-03-10T21:42:51.200Z,96449.78
2023-03-10T21:45:20.801Z,96456.72
2023-03-10T21:47:47.379Z,96462.81
2023-03-10T21:50:15.483Z,96479.31
2023-03-10T21:52:44.956Z,96488.00
2023-03-10T21:55:23.518Z,96500.16
2023-03-10T21:57:50.768Z,96507.09
2023-03-10T22:00:20.078Z,96527.06
2023-03-10T22:02:47.330Z,96537.50
2023-03-10T22:05:15.120Z,96528.84
2023-03-10T22:07:42.417Z,96545.34
2023-03-10T22:10:11.961Z,96553.13
2023-03-10T22:12:38.990Z,96567.91
2023-03-10T22:15:07.774Z,96565.31
2023-03-10T22:17:34.422Z,96574.84
2023-03-10T22:20:01.752Z,96580.91
2023-03-10T22:22:31.162Z,96590.47
2023-03-10T22:24:57.702Z,96596.56
2023-03-10T22:27:24.146Z,96615.63
2023-03-10T22:29:50.724Z,96624.31
2023-03-10T22:32:17.249Z,96638.19
2023-03-10T22:34:43.794Z,96637.34
2023-03-10T22:37:10.531Z,96650.38
2023-03-10T22:39:38.439Z,96652.97
2023-03-10T22:42:05.246Z,96663.38
2023-03-10T22:44:37.770Z,96676.38
2023-03-10T22:47:05.009Z,96695.50
2023-03-10T22:49:32.640Z,96699.81
2023-03-10T22:51:59.124Z,96699.81
2023-03-10T22:54:26.137Z,96703.28
2023-03-10T22:56:52.618Z,96711.97
2023-03-10T22:59:19.114Z,96717.19
2023-03-10T23:01:45.746Z,96738.00
2023-03-10T23:04:12.258Z,96761.41
2023-03-10T23:06:39.503Z,96762.28
2023-03-10T23:09:07.416Z,96777.88
2023-03-10T23:11:35.410Z,96788.28
2023-03-10T23:14:03.707Z,96786.56
2023-03-10T23:16:38.072Z,96787.44
2023-03-10T23:19:08.486Z,96811.72
2023-03-10T23:21:35.407Z,96813.47
2023-03-10T23:24:01.929Z,96817.81
2023-03-10T23:26:30.107Z,96829.94
2023-03-10T23:28:57.189Z,96842.09
2023-03-10T23:31:23.869Z,96860.31
2023-03-10T23:33:50.590Z,96864.66
2023-03-10T23:36:17.186Z,96872.47
2023-03-10T23:38:43.647Z,96882.88
2023-03-10T23:41:10.148Z,96885.47
2023-03-10T23:43:36.773Z,96899.34
2023-03-10T23:46:08.328Z,96901.09
2023-03-10T23:48:35.454Z,96911.50
2023-03-10T23:51:02.891Z,96928.81
2023-03-10T23:53:30.202Z,96925.31
2023-03-10T23:56:00.275Z,96959.16
2023-03-10T23:58:28.035Z,96963.50
